createdAt,value
2017-09-03T00:00:51.082Z,0
2017-09-03T00:01:53.491Z,0
2017-09-03T00:02:55.895Z,0
2017-09-03T00:03:58.290Z,0
2017-09-03T00:05:00.698Z,0
2017-09-03T00:06:03.793Z,0
2017-09-03T00:07:06.188Z,0
2017-09-03T00:08:08.602Z,0
2017-09-03T00:09:11.000Z,0
2017-09-03T00:10:13.402Z,0
2017-09-03T00:11:15.810Z,0
2017-09-03T00:12:18.546Z,0
2017-09-03T00:13:20.953Z,0
2017-09-03T00:14:23.352Z,0
2017-09-03T00:15:25.752Z,0
2017-09-03T00:16:28.153Z,0
2017-09-03T00:17:30.897Z,0
2017-09-03T00:18:33.297Z,0
2017-09-03T00:19:35.701Z,0
2017-09-03T00:20:38.112Z,0
2017-09-03T00:21:40.513Z,0
2017-09-03T00:22:42.918Z,0
2017-09-03T00:23:45.332Z,0
2017-09-03T00:24:47.733Z,0
2017-09-03T00:25:50.141Z,0
2017-09-03T00:26:52.546Z,0
2017-09-03T00:27:54.935Z,0
2017-09-03T00:28:57.347Z,0
2017-09-03T00:30:00.090Z,0
2017-09-03T00:31:02.495Z,0
2017-09-03T00:32:04.903Z,0
2017-09-03T00:33:07.295Z,0
2017-09-03T00:34:09.701Z,0
2017-09-03T00:35:12.113Z,0
2017-09-03T00:36:14.513Z,0
2017-09-03T00:37:16.920Z,0
2017-09-03T00:38:19.327Z,0
2017-09-03T00:39:21.724Z,0
2017-09-03T00:40:24.138Z,0
2017-09-03T00:41:26.544Z,0
2017-09-03T00:42:28.942Z,0
2017-09-03T00:43:31.345Z,0
2017-09-03T00:44:33.754Z,0
2017-09-03T00:45:36.148Z,0
2017-09-03T00:46:38.550Z,0
2017-09-03T00:47:40.955Z,0
2017-09-03T00:48:43.363Z,0
2017-09-03T00:49:45.762Z,0
2017-09-03T00:50:48.172Z,0
2017-09-03T00:51:50.563Z,0
2017-09-03T00:52:52.967Z,0
2017-09-03T00:53:55.377Z,0
2017-09-03T00:54:57.774Z,0
2017-09-03T00:56:00.512Z,0
2017-09-03T00:57:02.915Z,0
2017-09-03T00:58:05.311Z,0
2017-09-03T00:59:07.729Z,0
2017-09-03T01:00:10.465Z,0
2017-09-03T01:01:12.864Z,0
2017-09-03T01:02:15.267Z,0
2017-09-03T01:03:17.676Z,0
2017-09-03T01:04:20.078Z,0
2017-09-03T01:05:22.484Z,0
2017-09-03T01:06:24.881Z,0
2017-09-03T01:07:27.284Z,0
2017-09-03T01:08:29.694Z,0
2017-09-03T01:09:32.099Z,0
2017-09-03T01:10:34.500Z,0
2017-09-03T01:11:36.903Z,0
2017-09-03T01:12:39.317Z,0
2017-09-03T01:13:41.725Z,0
2017-09-03T01:14:44.124Z,0
2017-09-03T01:15:46.534Z,0
2017-09-03T01:16:48.937Z,0
2017-09-03T01:17:51.672Z,0
2017-09-03T01:18:54.072Z,0
2017-09-03T01:19:56.475Z,0
2017-09-03T01:20:58.875Z,0
2017-09-03T01:22:01.283Z,0
2017-09-03T01:23:03.687Z,0
2017-09-03T01:24:06.089Z,0
2017-09-03T01:25:08.501Z,0
2017-09-03T01:26:10.906Z,0
2017-09-03T01:27:13.304Z,0
2017-09-03T01:28:15.715Z,0
2017-09-03T01:29:18.115Z,0
2017-09-03T01:30:20.524Z,0
2017-09-03T01:31:22.927Z,0
2017-09-03T01:32:25.999Z,0
2017-09-03T01:33:28.402Z,0
2017-09-03T01:34:30.834Z,0
2017-09-03T01:35:33.214Z,0
2017-09-03T01:36:35.625Z,0
2017-09-03T01:37:38.028Z,0
2017-09-03T01:38:40.776Z,0
2017-09-03T01:39:43.173Z,0
2017-09-03T01:40:45.587Z,0
2017-09-03T01:41:47.983Z,0
2017-09-03T01:42:50.384Z,0
2017-09-03T01:43:52.784Z,0
2017-09-03T01:44:55.193Z,0
2017-09-03T01:45:57.593Z,0
2017-09-03T01:47:00.000Z,0
2017-09-03T01:48:02.399Z,0
2017-09-03T01:49:04.805Z,0
2017-09-03T01:50:07.206Z,0
2017-09-03T01:51:09.610Z,0
2017-09-03T01:52:12.019Z,0
2017-09-03T01:53:14.420Z,0
2017-09-03T01:54:16.829Z,0
2017-09-03T01:55:19.235Z,0
2017-09-03T01:56:21.642Z,0
2017-09-03T01:57:24.049Z,0
2017-09-03T01:58:26.451Z,0
2017-09-03T01:59:28.854Z,0
2017-09-03T02:00:31.261Z,0
2017-09-03T02:01:33.666Z,0
2017-09-03T02:02:36.065Z,0
2017-09-03T02:03:38.475Z,0
2017-09-03T02:04:40.880Z,0
2017-09-03T02:05:43.286Z,0
2017-09-03T02:06:45.693Z,0
2017-09-03T02:07:48.096Z,0
2017-09-03T02:08:50.503Z,0
2017-09-03T02:09:52.907Z,0
2017-09-03T02:10:55.310Z,0
2017-09-03T02:11:58.055Z,0
2017-09-03T02:13:00.455Z,0
2017-09-03T02:14:02.863Z,0
2017-09-03T02:15:05.264Z,0
2017-09-03T02:16:07.662Z,0
2017-09-03T02:17:10.073Z,0
2017-09-03T02:18:12.472Z,0
2017-09-03T02:19:14.874Z,0
2017-09-03T02:20:17.281Z,0
2017-09-03T02:21:19.677Z,0
2017-09-03T02:22:22.423Z,0
2017-09-03T02:23:24.831Z,0
2017-09-03T02:24:27.226Z,0
2017-09-03T02:25:29.636Z,0
2017-09-03T02:26:32.383Z,0
2017-09-03T02:27:34.786Z,0
2017-09-03T02:28:37.187Z,0
2017-09-03T02:29:39.939Z,0
2017-09-03T02:30:42.329Z,0
2017-09-03T02:31:44.741Z,0
2017-09-03T02:32:47.148Z,0
2017-09-03T02:33:49.890Z,0
2017-09-03T02:34:52.300Z,0
2017-09-03T02:35:55.040Z,0
2017-09-03T02:36:57.438Z,0
2017-09-03T02:38:00.189Z,0
2017-09-03T02:39:02.578Z,0
2017-09-03T02:40:04.988Z,0
2017-09-03T02:41:07.393Z,0
2017-09-03T02:42:09.802Z,0
2017-09-03T02:43:12.208Z,0
2017-09-03T02:44:14.607Z,0
2017-09-03T02:45:17.014Z,0
2017-09-03T02:46:19.422Z,0
2017-09-03T02:47:21.818Z,0
2017-09-03T02:48:24.927Z,0
2017-09-03T02:49:27.315Z,0
2017-09-03T02:50:29.729Z,0
2017-09-03T02:51:32.132Z,0
2017-09-03T02:52:34.538Z,0
2017-09-03T02:53:36.939Z,0
2017-09-03T02:54:39.343Z,0
2017-09-03T02:55:41.743Z,0
2017-09-03T02:56:44.153Z,0
2017-09-03T02:57:46.555Z,0
2017-09-03T02:58:48.960Z,0
2017-09-03T02:59:51.371Z,0
2017-09-03T03:00:53.777Z,0
2017-09-03T03:01:56.177Z,0
2017-09-03T03:02:58.578Z,0
2017-09-03T03:04:00.975Z,0
2017-09-03T03:05:03.389Z,0
2017-09-03T03:06:05.791Z,0
2017-09-03T03:07:08.202Z,0
2017-09-03T03:08:10.601Z,0
2017-09-03T03:09:13.002Z,0
2017-09-03T03:10:15.409Z,0
2017-09-03T03:11:17.817Z,0
2017-09-03T03:12:20.226Z,0
2017-09-03T03:13:22.631Z,0
2017-09-03T03:14:25.021Z,0
2017-09-03T03:15:27.778Z,0
2017-09-03T03:16:30.185Z,0
2017-09-03T03:17:32.590Z,0
2017-09-03T03:18:34.992Z,0
2017-09-03T03:19:37.395Z,0
2017-09-03T03:20:39.800Z,0
2017-09-03T03:21:42.207Z,0
2017-09-03T03:22:44.604Z,0
2017-09-03T03:23:47.001Z,0
2017-09-03T03:24:49.402Z,0
2017-09-03T03:25:51.802Z,0
2017-09-03T03:26:54.213Z,0
2017-09-03T03:27:56.623Z,0
2017-09-03T03:28:59.024Z,0
2017-09-03T03:30:01.437Z,0
2017-09-03T03:31:03.839Z,0
2017-09-03T03:32:06.242Z,0
2017-09-03T03:33:08.647Z,0
2017-09-03T03:34:11.049Z,0
2017-09-03T03:35:13.446Z,0
2017-09-03T03:36:15.863Z,0
2017-09-03T03:37:18.257Z,0
2017-09-03T03:38:20.647Z,0
2017-09-03T03:39:23.058Z,0
2017-09-03T03:40:25.473Z,0
2017-09-03T03:41:27.865Z,0
2017-09-03T03:42:30.269Z,0
2017-09-03T03:43:32.669Z,0
2017-09-03T03:44:35.080Z,0
2017-09-03T03:45:37.474Z,0
2017-09-03T03:46:39.877Z,0
2017-09-03T03:47:42.294Z,0
2017-09-03T03:48:44.683Z,0
2017-09-03T03:49:47.085Z,0
2017-09-03T03:50:49.493Z,0
2017-09-03T03:51:51.887Z,0
2017-09-03T03:52:54.291Z,0
2017-09-03T03:53:56.699Z,0
2017-09-03T03:54:59.090Z,0
2017-09-03T03:56:01.497Z,0
2017-09-03T03:57:03.903Z,0
2017-09-03T03:58:06.298Z,0
2017-09-03T03:59:08.704Z,0
2017-09-03T04:00:11.101Z,0
2017-09-03T04:01:13.501Z,0
2017-09-03T04:02:15.917Z,0
2017-09-03T04:03:18.311Z,0
2017-09-03T04:04:20.713Z,0
2017-09-03T04:05:23.116Z,0
2017-09-03T04:06:25.508Z,0
2017-09-03T04:07:27.911Z,0
2017-09-03T04:08:30.311Z,0
2017-09-03T04:09:32.707Z,0
2017-09-03T04:10:35.109Z,0
2017-09-03T04:11:37.518Z,0
2017-09-03T04:12:39.915Z,0
2017-09-03T04:13:42.665Z,0
2017-09-03T04:14:45.064Z,0
2017-09-03T04:15:47.468Z,0
2017-09-03T04:16:49.870Z,0
2017-09-03T04:17:52.273Z,0
2017-09-03T04:18:54.677Z,0
2017-09-03T04:19:57.085Z,1
2017-09-03T04:20:59.488Z,1
2017-09-03T04:22:01.892Z,1
2017-09-03T04:23:04.296Z,1
2017-09-03T04:24:06.692Z,1
2017-09-03T04:25:09.100Z,1
2017-09-03T04:26:11.513Z,1
2017-09-03T04:27:13.908Z,2
2017-09-03T04:28:16.312Z,2
2017-09-03T04:29:18.717Z,2
2017-09-03T04:30:21.117Z,2
2017-09-03T04:31:23.865Z,3
2017-09-03T04:32:26.266Z,3
2017-09-03T04:33:28.667Z,3
2017-09-03T04:34:31.073Z,3
2017-09-03T04:35:33.469Z,4
2017-09-03T04:36:35.873Z,4
2017-09-03T04:37:38.606Z,4
2017-09-03T04:38:41.012Z,4
2017-09-03T04:39:43.416Z,5
2017-09-03T04:40:45.813Z,5
2017-09-03T04:41:48.550Z,5
2017-09-03T04:42:50.950Z,6
2017-09-03T04:43:53.348Z,6
2017-09-03T04:44:55.756Z,6
2017-09-03T04:45:58.159Z,7
2017-09-03T04:47:00.573Z,7
2017-09-03T04:48:02.975Z,7
2017-09-03T04:49:05.409Z,8
2017-09-03T04:50:07.832Z,8
2017-09-03T04:51:10.266Z,8
2017-09-03T04:52:12.688Z,9
2017-09-03T04:53:15.119Z,9
2017-09-03T04:54:17.542Z,9
2017-09-03T04:55:19.968Z,10
2017-09-03T04:56:22.408Z,10
2017-09-03T04:57:24.844Z,11
2017-09-03T04:58:27.283Z,11
2017-09-03T04:59:30.058Z,11
2017-09-03T05:00:32.485Z,11
2017-09-03T05:01:34.916Z,12
2017-09-03T05:02:37.357Z,12
2017-09-03T05:03:39.799Z,12
2017-09-03T05:04:42.226Z,13
2017-09-03T05:05:44.662Z,13
2017-09-03T05:06:47.105Z,13
2017-09-03T05:07:49.520Z,14
2017-09-03T05:08:51.951Z,14
2017-09-03T05:09:54.372Z,14
2017-09-03T05:10:56.802Z,15
2017-09-03T05:11:59.230Z,15
2017-09-03T05:13:01.655Z,16
2017-09-03T05:14:04.083Z,16
2017-09-03T05:15:06.512Z,16
2017-09-03T05:16:08.968Z,17
2017-09-03T05:17:11.725Z,17
2017-09-03T05:18:14.156Z,17
2017-09-03T05:19:16.583Z,18
2017-09-03T05:20:19.011Z,18
2017-09-03T05:21:21.447Z,19
2017-09-03T05:22:23.874Z,19
2017-09-03T05:23:26.677Z,20
2017-09-03T05:24:29.113Z,20
2017-09-03T05:25:31.541Z,20
2017-09-03T05:26:33.966Z,21
2017-09-03T05:27:36.394Z,21
2017-09-03T05:28:38.824Z,22
2017-09-03T05:29:41.258Z,22
2017-09-03T05:30:43.693Z,22
2017-09-03T05:31:46.130Z,23
2017-09-03T05:32:48.543Z,23
2017-09-03T05:33:50.983Z,24
2017-09-03T05:34:53.756Z,24
2017-09-03T05:35:56.191Z,24
2017-09-03T05:36:58.625Z,25
2017-09-03T05:38:01.057Z,25
2017-09-03T05:39:03.483Z,25
2017-09-03T05:40:05.910Z,26
2017-09-03T05:41:08.335Z,27
2017-09-03T05:42:10.772Z,27
2017-09-03T05:43:13.200Z,27
2017-09-03T05:44:15.625Z,28
2017-09-03T05:45:18.061Z,28
2017-09-03T05:46:20.483Z,29
2017-09-03T05:47:22.907Z,29
2017-09-03T05:48:25.341Z,30
2017-09-03T05:49:27.765Z,30
2017-09-03T05:50:30.195Z,30
2017-09-03T05:51:32.620Z,31
2017-09-03T05:52:35.035Z,31
2017-09-03T05:53:37.468Z,31
2017-09-03T05:54:40.229Z,32
2017-09-03T05:55:42.657Z,32
2017-09-03T05:56:45.079Z,33
2017-09-03T05:57:47.508Z,33
2017-09-03T05:58:49.937Z,34
2017-09-03T05:59:52.711Z,34
2017-09-03T06:00:55.157Z,34
2017-09-03T06:01:57.914Z,35
2017-09-03T06:03:00.356Z,35
2017-09-03T06:04:02.787Z,36
2017-09-03T06:05:05.210Z,36
2017-09-03T06:06:07.636Z,36
2017-09-03T06:07:10.064Z,36
2017-09-03T06:08:12.493Z,37
2017-09-03T06:09:15.272Z,36
2017-09-03T06:10:18.058Z,37
2017-09-03T06:11:20.482Z,37
2017-09-03T06:12:22.910Z,38
2017-09-03T06:13:25.345Z,38
2017-09-03T06:14:27.777Z,39
2017-09-03T06:15:30.211Z,40
2017-09-03T06:16:32.643Z,41
2017-09-03T06:17:35.059Z,41
2017-09-03T06:18:37.836Z,42
2017-09-03T06:19:40.263Z,43
2017-09-03T06:20:42.701Z,43
2017-09-03T06:21:45.125Z,44
2017-09-03T06:22:47.558Z,44
2017-09-03T06:23:49.999Z,44
2017-09-03T06:24:52.447Z,44
2017-09-03T06:25:54.881Z,45
2017-09-03T06:26:57.308Z,45
2017-09-03T06:27:59.743Z,46
2017-09-03T06:29:02.192Z,46
2017-09-03T06:30:04.955Z,46
2017-09-03T06:31:07.400Z,47
2017-09-03T06:32:09.835Z,47
2017-09-03T06:33:12.267Z,47
2017-09-03T06:34:14.704Z,48
2017-09-03T06:35:17.494Z,48
2017-09-03T06:36:19.922Z,48
2017-09-03T06:37:22.359Z,49
2017-09-03T06:38:24.787Z,49
2017-09-03T06:39:27.221Z,49
2017-09-03T06:40:29.646Z,50
2017-09-03T06:41:32.089Z,50
2017-09-03T06:42:34.524Z,50
2017-09-03T06:43:37.320Z,51
2017-09-03T06:44:39.751Z,51
2017-09-03T06:45:42.184Z,52
2017-09-03T06:46:44.618Z,52
2017-09-03T06:47:47.056Z,53
2017-09-03T06:48:49.471Z,53
2017-09-03T06:49:51.901Z,53
2017-09-03T06:50:54.339Z,54
2017-09-03T06:51:56.763Z,54
2017-09-03T06:52:59.191Z,55
2017-09-03T06:54:01.632Z,55
2017-09-03T06:55:04.066Z,56
2017-09-03T06:56:06.846Z,56
2017-09-03T06:57:09.283Z,57
2017-09-03T06:58:11.698Z,58
2017-09-03T06:59:14.130Z,58
2017-09-03T07:00:16.567Z,59
2017-09-03T07:01:19.000Z,59
2017-09-03T07:02:21.431Z,59
2017-09-03T07:03:24.223Z,60
2017-09-03T07:04:26.657Z,60
2017-09-03T07:05:29.101Z,61
2017-09-03T07:06:31.535Z,61
2017-09-03T07:07:33.955Z,62
2017-09-03T07:08:36.393Z,62
2017-09-03T07:09:38.840Z,63
2017-09-03T07:10:41.281Z,63
2017-09-03T07:11:43.708Z,63
2017-09-03T07:12:46.153Z,64
2017-09-03T07:13:48.583Z,64
2017-09-03T07:14:51.011Z,64
2017-09-03T07:15:53.432Z,64
2017-09-03T07:16:55.868Z,65
2017-09-03T07:17:58.305Z,65
2017-09-03T07:19:00.751Z,65
2017-09-03T07:20:03.172Z,66
2017-09-03T07:21:05.601Z,66
2017-09-03T07:22:08.044Z,67
2017-09-03T07:23:10.467Z,67
2017-09-03T07:24:12.913Z,67
2017-09-03T07:25:15.332Z,68
2017-09-03T07:26:17.763Z,68
2017-09-03T07:27:20.186Z,68
2017-09-03T07:28:22.624Z,69
2017-09-03T07:29:25.052Z,69
2017-09-03T07:30:27.491Z,70
2017-09-03T07:31:29.914Z,70
2017-09-03T07:32:32.350Z,71
2017-09-03T07:33:35.114Z,71
2017-09-03T07:34:37.548Z,72
2017-09-03T07:35:39.977Z,72
2017-09-03T07:36:42.411Z,73
2017-09-03T07:37:44.845Z,73
2017-09-03T07:38:47.270Z,74
2017-09-03T07:39:49.701Z,74
2017-09-03T07:40:52.140Z,75
2017-09-03T07:41:54.570Z,75
2017-09-03T07:42:57.001Z,75
2017-09-03T07:43:59.438Z,75
2017-09-03T07:45:01.861Z,75
2017-09-03T07:46:04.287Z,75
2017-09-03T07:47:06.725Z,76
2017-09-03T07:48:09.144Z,76
2017-09-03T07:49:11.579Z,77
2017-09-03T07:50:14.017Z,80
2017-09-03T07:51:16.444Z,221
2017-09-03T07:52:18.906Z,350
2017-09-03T07:53:21.341Z,386
2017-09-03T07:54:23.772Z,351
2017-09-03T07:55:26.213Z,359
2017-09-03T07:56:28.642Z,415
2017-09-03T07:57:31.075Z,437
2017-09-03T07:58:33.503Z,375
2017-09-03T07:59:35.943Z,340
2017-09-03T08:00:38.369Z,309
2017-09-03T08:01:40.802Z,321
2017-09-03T08:02:43.229Z,287
2017-09-03T08:03:45.661Z,245
2017-09-03T08:04:48.101Z,228
2017-09-03T08:05:50.536Z,235
2017-09-03T08:06:52.960Z,208
2017-09-03T08:07:55.390Z,188
2017-09-03T08:08:57.829Z,180
2017-09-03T08:10:00.258Z,183
2017-09-03T08:11:02.691Z,196
2017-09-03T08:12:05.496Z,207
2017-09-03T08:13:07.929Z,200
2017-09-03T08:14:10.354Z,201
2017-09-03T08:15:12.801Z,211
2017-09-03T08:16:15.238Z,249
2017-09-03T08:17:17.670Z,502
2017-09-03T08:18:20.105Z,325
2017-09-03T08:19:22.880Z,262
2017-09-03T08:20:25.309Z,227
2017-09-03T08:21:27.755Z,327
2017-09-03T08:22:30.182Z,396
2017-09-03T08:23:32.610Z,384
2017-09-03T08:24:35.047Z,422
2017-09-03T08:25:37.480Z,447
2017-09-03T08:26:39.919Z,487
2017-09-03T08:27:42.350Z,520
2017-09-03T08:28:44.784Z,442
2017-09-03T08:29:47.220Z,414
2017-09-03T08:30:49.655Z,365
2017-09-03T08:31:52.084Z,392
2017-09-03T08:32:54.518Z,421
2017-09-03T08:33:56.951Z,397
2017-09-03T08:34:59.385Z,429
2017-09-03T08:36:01.824Z,488
2017-09-03T08:37:04.263Z,477
2017-09-03T08:38:06.699Z,298
2017-09-03T08:39:09.141Z,573
2017-09-03T08:40:11.583Z,147
2017-09-03T08:41:14.018Z,377
2017-09-03T08:42:16.449Z,453
2017-09-03T08:43:19.225Z,453
2017-09-03T08:44:21.664Z,414
2017-09-03T08:45:24.104Z,418
2017-09-03T08:46:26.542Z,463
2017-09-03T08:47:28.970Z,124
2017-09-03T08:48:31.412Z,113
2017-09-03T08:49:33.853Z,112
2017-09-03T08:50:36.295Z,120
2017-09-03T08:51:38.734Z,724
2017-09-03T08:52:41.161Z,783
2017-09-03T08:53:43.599Z,473
2017-09-03T08:54:46.046Z,520
2017-09-03T08:55:48.481Z,652
2017-09-03T08:56:50.924Z,605
2017-09-03T08:57:53.360Z,512
2017-09-03T08:58:55.805Z,462
2017-09-03T08:59:58.257Z,510
2017-09-03T09:01:00.698Z,492
2017-09-03T09:02:03.132Z,541
2017-09-03T09:03:05.916Z,507
2017-09-03T09:04:08.362Z,514
2017-09-03T09:05:10.805Z,527
2017-09-03T09:06:13.237Z,488
2017-09-03T09:07:15.684Z,485
2017-09-03T09:08:18.128Z,523
2017-09-03T09:09:20.603Z,557
2017-09-03T09:10:23.048Z,569
2017-09-03T09:11:25.498Z,490
2017-09-03T09:12:27.939Z,484
2017-09-03T09:13:30.388Z,536
2017-09-03T09:14:32.830Z,548
2017-09-03T09:15:35.275Z,535
2017-09-03T09:16:37.712Z,545
2017-09-03T09:17:40.163Z,535
2017-09-03T09:18:42.953Z,502
2017-09-03T09:19:45.403Z,512
2017-09-03T09:20:47.849Z,635
2017-09-03T09:21:50.300Z,580
2017-09-03T09:22:52.752Z,481
2017-09-03T09:23:55.198Z,530
2017-09-03T09:24:57.643Z,545
2017-09-03T09:26:00.097Z,558
2017-09-03T09:27:02.536Z,563
2017-09-03T09:28:04.989Z,572
2017-09-03T09:29:07.439Z,527
2017-09-03T09:30:09.880Z,488
2017-09-03T09:31:12.326Z,595
2017-09-03T09:32:15.119Z,647
2017-09-03T09:33:17.565Z,555
2017-09-03T09:34:20.018Z,490
2017-09-03T09:35:22.465Z,183
2017-09-03T09:36:24.907Z,295
2017-09-03T09:37:27.368Z,397
2017-09-03T09:38:29.807Z,419
2017-09-03T09:39:32.254Z,480
2017-09-03T09:40:34.697Z,602
2017-09-03T09:41:37.152Z,470
2017-09-03T09:42:39.604Z,630
2017-09-03T09:43:42.056Z,667
2017-09-03T09:44:44.502Z,639
2017-09-03T09:45:46.955Z,711
2017-09-03T09:46:49.400Z,714
2017-09-03T09:47:51.849Z,711
2017-09-03T09:48:54.305Z,646
2017-09-03T09:49:56.753Z,666
2017-09-03T09:50:59.200Z,547
2017-09-03T09:52:01.650Z,671
2017-09-03T09:53:04.095Z,235
2017-09-03T09:54:06.545Z,691
2017-09-03T09:55:08.994Z,209
2017-09-03T09:56:11.455Z,233
2017-09-03T09:57:13.903Z,198
2017-09-03T09:58:16.358Z,187
2017-09-03T09:59:18.798Z,164
2017-09-03T10:00:21.255Z,141
2017-09-03T10:01:23.698Z,134
2017-09-03T10:02:26.145Z,147
2017-09-03T10:03:28.598Z,149
2017-09-03T10:04:31.060Z,158
2017-09-03T10:05:33.537Z,252
2017-09-03T10:06:35.986Z,134
2017-09-03T10:07:38.425Z,164
2017-09-03T10:08:40.875Z,111
2017-09-03T10:09:43.325Z,106
2017-09-03T10:10:45.761Z,103
2017-09-03T10:11:48.212Z,101
2017-09-03T10:12:50.657Z,111
2017-09-03T10:13:53.106Z,122
2017-09-03T10:14:55.549Z,107
2017-09-03T10:15:57.994Z,101
2017-09-03T10:17:00.436Z,102
2017-09-03T10:18:02.883Z,100
2017-09-03T10:19:05.326Z,99
2017-09-03T10:20:07.759Z,101
2017-09-03T10:21:10.205Z,109
2017-09-03T10:22:12.648Z,121
2017-09-03T10:23:15.102Z,128
2017-09-03T10:24:17.545Z,139
2017-09-03T10:25:20.001Z,263
2017-09-03T10:26:22.431Z,194
2017-09-03T10:27:24.870Z,540
2017-09-03T10:28:27.310Z,544
2017-09-03T10:29:29.752Z,555
2017-09-03T10:30:32.192Z,598
2017-09-03T10:31:34.634Z,645
2017-09-03T10:32:37.091Z,703
2017-09-03T10:33:39.526Z,621
2017-09-03T10:34:41.959Z,177
2017-09-03T10:35:44.402Z,164
2017-09-03T10:36:46.854Z,631
2017-09-03T10:37:49.293Z,774
2017-09-03T10:38:51.739Z,201
2017-09-03T10:39:54.173Z,418
2017-09-03T10:40:56.619Z,686
2017-09-03T10:41:59.064Z,168
2017-09-03T10:43:01.510Z,159
2017-09-03T10:44:03.946Z,176
2017-09-03T10:45:06.391Z,193
2017-09-03T10:46:08.841Z,698
2017-09-03T10:47:11.283Z,644
2017-09-03T10:48:13.724Z,647
2017-09-03T10:49:16.170Z,374
2017-09-03T10:50:18.603Z,614
2017-09-03T10:51:21.056Z,623
2017-09-03T10:52:23.838Z,465
2017-09-03T10:53:26.281Z,172
2017-09-03T10:54:28.729Z,130
2017-09-03T10:55:31.174Z,118
2017-09-03T10:56:33.628Z,114
2017-09-03T10:57:38.213Z,118
2017-09-03T10:58:41.786Z,115
2017-09-03T10:59:44.246Z,117
2017-09-03T11:00:47.462Z,123
2017-09-03T11:01:49.961Z,133
2017-09-03T11:02:52.420Z,138
2017-09-03T11:03:54.879Z,144
2017-09-03T11:04:57.331Z,147
2017-09-03T11:06:00.161Z,151
2017-09-03T11:07:02.964Z,154
2017-09-03T11:08:05.580Z,153
2017-09-03T11:09:08.019Z,151
2017-09-03T11:10:10.463Z,151
2017-09-03T11:11:12.919Z,148
2017-09-03T11:12:15.366Z,344
2017-09-03T11:13:17.813Z,423
2017-09-03T11:14:20.599Z,469
2017-09-03T11:15:23.034Z,566
2017-09-03T11:16:25.486Z,592
2017-09-03T11:17:27.937Z,597
2017-09-03T11:18:30.388Z,636
2017-09-03T11:19:32.825Z,429
2017-09-03T11:20:35.277Z,553
2017-09-03T11:21:38.070Z,619
2017-09-03T11:22:40.522Z,755
2017-09-03T11:23:42.976Z,684
2017-09-03T11:24:45.412Z,157
2017-09-03T11:25:47.874Z,604
2017-09-03T11:26:50.326Z,656
2017-09-03T11:27:53.114Z,599
2017-09-03T11:28:55.567Z,185
2017-09-03T11:29:58.022Z,158
2017-09-03T11:31:00.481Z,134
2017-09-03T11:32:02.956Z,139
2017-09-03T11:33:05.414Z,139
2017-09-03T11:34:07.869Z,129
2017-09-03T11:35:10.332Z,120
2017-09-03T11:36:12.776Z,108
2017-09-03T11:37:15.211Z,103
2017-09-03T11:38:17.666Z,103
2017-09-03T11:39:20.109Z,104
2017-09-03T11:40:22.556Z,103
2017-09-03T11:41:25.019Z,105
2017-09-03T11:42:27.465Z,108
2017-09-03T11:43:29.927Z,112
2017-09-03T11:44:32.392Z,128
2017-09-03T11:45:34.844Z,140
2017-09-03T11:46:37.300Z,221
2017-09-03T11:47:39.750Z,579
2017-09-03T11:48:42.181Z,647
2017-09-03T11:49:44.648Z,595
2017-09-03T11:50:47.091Z,582
2017-09-03T11:51:49.538Z,613
2017-09-03T11:52:51.988Z,571
2017-09-03T11:53:54.450Z,573
2017-09-03T11:54:56.912Z,616
2017-09-03T11:55:59.360Z,684
2017-09-03T11:57:01.800Z,657
2017-09-03T11:58:04.246Z,591
2017-09-03T11:59:06.692Z,563
2017-09-03T12:00:09.145Z,545
2017-09-03T12:01:11.592Z,527
2017-09-03T12:02:14.042Z,565
2017-09-03T12:03:16.493Z,597
2017-09-03T12:04:18.952Z,568
2017-09-03T12:05:21.394Z,504
2017-09-03T12:06:23.837Z,559
2017-09-03T12:07:26.300Z,262
2017-09-03T12:08:28.755Z,158
2017-09-03T12:09:31.554Z,672
2017-09-03T12:10:34.004Z,192
2017-09-03T12:11:36.457Z,281
2017-09-03T12:12:38.899Z,502
2017-09-03T12:13:41.352Z,512
2017-09-03T12:14:43.820Z,509
2017-09-03T12:15:46.262Z,534
2017-09-03T12:16:48.719Z,520
2017-09-03T12:17:51.172Z,524
2017-09-03T12:18:53.632Z,575
2017-09-03T12:19:56.095Z,677
2017-09-03T12:20:58.543Z,616
2017-09-03T12:22:01.005Z,607
2017-09-03T12:23:03.795Z,527
2017-09-03T12:24:06.262Z,208
2017-09-03T12:25:08.715Z,212
2017-09-03T12:26:11.152Z,594
2017-09-03T12:27:13.949Z,328
2017-09-03T12:28:16.402Z,144
2017-09-03T12:29:18.854Z,155
2017-09-03T12:30:21.320Z,251
2017-09-03T12:31:24.102Z,226
2017-09-03T12:32:26.545Z,502
2017-09-03T12:33:29.012Z,568
2017-09-03T12:34:31.456Z,699
2017-09-03T12:35:33.898Z,581
2017-09-03T12:36:36.376Z,443
2017-09-03T12:37:38.820Z,406
2017-09-03T12:38:41.260Z,477
2017-09-03T12:39:43.713Z,513
2017-09-03T12:40:46.169Z,648
2017-09-03T12:41:48.613Z,810
2017-09-03T12:42:51.063Z,529
2017-09-03T12:43:53.514Z,451
2017-09-03T12:44:55.958Z,557
2017-09-03T12:45:58.423Z,544
2017-09-03T12:47:00.870Z,484
2017-09-03T12:48:03.731Z,514
2017-09-03T12:49:06.191Z,547
2017-09-03T12:50:08.623Z,510
2017-09-03T12:51:11.086Z,483
2017-09-03T12:52:13.536Z,496
2017-09-03T12:53:15.996Z,476
2017-09-03T12:54:18.460Z,446
2017-09-03T12:55:20.913Z,451
2017-09-03T12:56:23.362Z,480
2017-09-03T12:57:25.820Z,465
2017-09-03T12:58:28.269Z,485
2017-09-03T12:59:30.719Z,532
2017-09-03T13:00:33.207Z,511
2017-09-03T13:01:35.680Z,472
2017-09-03T13:02:38.174Z,150
2017-09-03T13:03:40.691Z,229
2017-09-03T13:04:43.192Z,159
2017-09-03T13:05:45.641Z,160
2017-09-03T13:06:48.091Z,160
2017-09-03T13:07:50.568Z,258
2017-09-03T13:08:53.031Z,524
2017-09-03T13:09:55.472Z,197
2017-09-03T13:10:57.932Z,153
2017-09-03T13:12:00.370Z,153
2017-09-03T13:13:02.824Z,136
2017-09-03T13:14:05.329Z,129
2017-09-03T13:15:07.780Z,143
2017-09-03T13:16:10.229Z,122
2017-09-03T13:17:12.706Z,118
2017-09-03T13:18:15.158Z,107
2017-09-03T13:19:17.965Z,94
2017-09-03T13:20:20.436Z,85
2017-09-03T13:21:22.870Z,83
2017-09-03T13:22:25.353Z,83
2017-09-03T13:23:28.155Z,82
2017-09-03T13:24:30.596Z,82
2017-09-03T13:25:33.041Z,82
2017-09-03T13:26:35.499Z,83
2017-09-03T13:27:37.942Z,81
2017-09-03T13:28:40.396Z,82
2017-09-03T13:29:42.854Z,83
2017-09-03T13:30:45.343Z,83
2017-09-03T13:31:47.785Z,81
2017-09-03T13:32:50.245Z,82
2017-09-03T13:33:52.693Z,85
2017-09-03T13:34:55.159Z,90
2017-09-03T13:35:57.589Z,94
2017-09-03T13:37:00.044Z,98
2017-09-03T13:38:02.849Z,103
2017-09-03T13:39:05.314Z,107
2017-09-03T13:40:08.113Z,133
2017-09-03T13:41:10.595Z,188
2017-09-03T13:42:13.037Z,351
2017-09-03T13:43:15.491Z,344
2017-09-03T13:44:17.944Z,250
2017-09-03T13:45:20.396Z,234
2017-09-03T13:46:22.845Z,437
2017-09-03T13:47:25.302Z,353
2017-09-03T13:48:27.755Z,231
2017-09-03T13:49:30.204Z,111
2017-09-03T13:50:32.660Z,98
2017-09-03T13:51:35.105Z,90
2017-09-03T13:52:37.546Z,87
2017-09-03T13:53:39.990Z,85
2017-09-03T13:54:42.438Z,91
2017-09-03T13:55:44.892Z,98
2017-09-03T13:56:47.331Z,98
2017-09-03T13:57:49.776Z,96
2017-09-03T13:58:52.234Z,138
2017-09-03T13:59:54.674Z,190
2017-09-03T14:00:57.121Z,142
2017-09-03T14:01:59.917Z,347
2017-09-03T14:03:02.375Z,157
2017-09-03T14:04:04.815Z,90
2017-09-03T14:05:07.262Z,87
2017-09-03T14:06:09.710Z,87
2017-09-03T14:07:12.153Z,96
2017-09-03T14:08:14.598Z,254
2017-09-03T14:09:17.060Z,106
2017-09-03T14:10:19.486Z,489
2017-09-03T14:11:21.934Z,237
2017-09-03T14:12:24.388Z,137
2017-09-03T14:13:26.829Z,87
2017-09-03T14:14:29.274Z,81
2017-09-03T14:15:31.720Z,81
2017-09-03T14:16:34.155Z,77
2017-09-03T14:17:36.600Z,77
2017-09-03T14:18:39.035Z,77
2017-09-03T14:19:41.490Z,76
2017-09-03T14:20:43.930Z,77
2017-09-03T14:21:46.379Z,80
2017-09-03T14:22:48.815Z,80
2017-09-03T14:23:51.263Z,84
2017-09-03T14:24:53.711Z,84
2017-09-03T14:25:56.151Z,86
2017-09-03T14:26:58.593Z,79
2017-09-03T14:28:01.035Z,73
2017-09-03T14:29:03.469Z,71
2017-09-03T14:30:05.917Z,74
2017-09-03T14:31:08.352Z,75
2017-09-03T14:32:10.790Z,73
2017-09-03T14:33:13.234Z,71
2017-09-03T14:34:15.678Z,69
2017-09-03T14:35:18.112Z,65
2017-09-03T14:36:20.561Z,61
2017-09-03T14:37:23.002Z,57
2017-09-03T14:38:25.446Z,55
2017-09-03T14:39:27.895Z,54
2017-09-03T14:40:30.338Z,55
2017-09-03T14:41:32.780Z,55
2017-09-03T14:42:35.225Z,57
2017-09-03T14:43:37.665Z,59
2017-09-03T14:44:40.766Z,61
2017-09-03T14:45:43.212Z,62
2017-09-03T14:46:45.657Z,63
2017-09-03T14:47:48.099Z,63
2017-09-03T14:48:50.542Z,63